sensor_id;sensor_type;location;lat;lon;timestamp;temperature;humidity
8979;DHT22;4524;51.364;5.448;2023-04-07T00:00:11;9.40;96.60
8979;DHT22;4524;51.364;5.448;2023-04-07T00:02:40;9.30;93.80
8979;DHT22;4524;51.364;5.448;2023-04-07T00:05:10;9.20;99.90
8979;DHT22;4524;51.364;5.448;2023-04-07T00:07:38;9.20;99.90
8979;DHT22;4524;51.364;5.448;2023-04-07T00:10:21;9.10;99.90
8979;DHT22;4524;51.364;5.448;2023-04-07T00:12:49;9.10;99.90
8979;DHT22;4524;51.364;5.448;2023-04-07T00:15:17;9.10;99.90
8979;DHT22;4524;51.364;5.448;2023-04-07T00:17:46;9.00;99.90
8979;DHT22;4524;51.364;5.448;2023-04-07T00:20:14;9.00;99.90
8979;DHT22;4524;51.364;5.448;2023-04-07T00:22:42;9.00;99.90
8979;DHT22;4524;51.364;5.448;2023-04-07T00:25:11;9.00;99.90
8979;DHT22;4524;51.364;5.448;2023-04-07T00:27:38;9.10;39.30
8979;DHT22;4524;51.364;5.448;2023-04-07T00:30:07;9.20;1.00
8979;DHT22;4524;51.364;5.448;2023-04-07T00:32:35;9.30;1.00
8979;DHT22;4524;51.364;5.448;2023-04-07T00:35:05;9.30;1.00
8979;DHT22;4524;51.364;5.448;2023-04-07T00:37:33;9.40;1.00
8979;DHT22;4524;51.364;5.448;2023-04-07T00:40:02;9.30;1.00
8979;DHT22;4524;51.364;5.448;2023-04-07T00:42:31;9.30;1.00
8979;DHT22;4524;51.364;5.448;2023-04-07T00:45:00;9.30;1.00
8979;DHT22;4524;51.364;5.448;2023-04-07T00:47:28;9.30;1.00
8979;DHT22;4524;51.364;5.448;2023-04-07T00:49:56;9.40;1.00
8979;DHT22;4524;51.364;5.448;2023-04-07T00:52:25;9.40;1.00
8979;DHT22;4524;51.364;5.448;2023-04-07T00:54:55;9.40;1.00
8979;DHT22;4524;51.364;5.448;2023-04-07T00:57:24;9.40;1.00
8979;DHT22;4524;51.364;5.448;2023-04-07T00:59:53;9.40;1.00
8979;DHT22;4524;51.364;5.448;2023-04-07T01:02:27;9.50;1.00
8979;DHT22;4524;51.364;5.448;2023-04-07T01:05:05;9.40;1.00
8979;DHT22;4524;51.364;5.448;2023-04-07T01:07:43;9.40;1.00
8979;DHT22;4524;51.364;5.448;2023-04-07T01:10:22;9.40;1.00
8979;DHT22;4524;51.364;5.448;2023-04-07T01:13:04;9.40;1.00
8979;DHT22;4524;51.364;5.448;2023-04-07T01:15:33;9.40;99.90
8979;DHT22;4524;51.364;5.448;2023-04-07T01:18:09;9.40;1.00
8979;DHT22;4524;51.364;5.448;2023-04-07T01:20:37;9.40;99.90
8979;DHT22;4524;51.364;5.448;2023-04-07T01:23:08;9.50;99.90
8979;DHT22;4524;51.364;5.448;2023-04-07T01:26:02;9.40;99.90
8979;DHT22;4524;51.364;5.448;2023-04-07T01:28:43;9.40;1.00
8979;DHT22;4524;51.364;5.448;2023-04-07T01:31:16;9.30;1.00
8979;DHT22;4524;51.364;5.448;2023-04-07T01:33:44;9.20;1.00
8979;DHT22;4524;51.364;5.448;2023-04-07T01:36:14;9.20;1.00
8979;DHT22;4524;51.364;5.448;2023-04-07T01:38:44;9.10;1.00
8979;DHT22;4524;51.364;5.448;2023-04-07T01:41:14;9.20;1.00
8979;DHT22;4524;51.364;5.448;2023-04-07T01:43:42;9.20;1.00
8979;DHT22;4524;51.364;5.448;2023-04-07T01:46:13;9.20;1.00
8979;DHT22;4524;51.364;5.448;2023-04-07T01:48:41;9.10;1.00
8979;DHT22;4524;51.364;5.448;2023-04-07T01:51:09;9.10;1.00
8979;DHT22;4524;51.364;5.448;2023-04-07T01:53:43;9.10;1.00
8979;DHT22;4524;51.364;5.448;2023-04-07T01:56:12;9.10;1.00
8979;DHT22;4524;51.364;5.448;2023-04-07T01:58:40;9.10;1.00
8979;DHT22;4524;51.364;5.448;2023-04-07T02:01:13;9.10;1.00
8979;DHT22;4524;51.364;5.448;2023-04-07T02:03:46;9.10;1.00
8979;DHT22;4524;51.364;5.448;2023-04-07T02:06:19;9.10;1.00
8979;DHT22;4524;51.364;5.448;2023-04-07T02:08:52;9.10;1.00
8979;DHT22;4524;51.364;5.448;2023-04-07T02:11:24;9.10;1.00
8979;DHT22;4524;51.364;5.448;2023-04-07T02:13:57;9.10;1.00
8979;DHT22;4524;51.364;5.448;2023-04-07T02:16:33;9.00;1.00
8979;DHT22;4524;51.364;5.448;2023-04-07T02:19:01;9.10;1.00
8979;DHT22;4524;51.364;5.448;2023-04-07T02:21:32;9.10;1.00
8979;DHT22;4524;51.364;5.448;2023-04-07T02:24:00;9.10;1.00
8979;DHT22;4524;51.364;5.448;2023-04-07T02:26:33;9.20;1.00
8979;DHT22;4524;51.364;5.448;2023-04-07T02:29:01;9.20;1.00
8979;DHT22;4524;51.364;5.448;2023-04-07T02:31:29;9.20;1.00
8979;DHT22;4524;51.364;5.448;2023-04-07T02:34:01;9.20;1.00
8979;DHT22;4524;51.364;5.448;2023-04-07T02:36:28;9.30;1.00
8979;DHT22;4524;51.364;5.448;2023-04-07T02:38:57;9.30;1.00
8979;DHT22;4524;51.364;5.448;2023-04-07T02:41:25;9.30;1.00
8979;DHT22;4524;51.364;5.448;2023-04-07T02:43:53;9.30;99.90
8979;DHT22;4524;51.364;5.448;2023-04-07T02:46:22;9.30;99.90
8979;DHT22;4524;51.364;5.448;2023-04-07T02:48:50;9.30;99.90
8979;DHT22;4524;51.364;5.448;2023-04-07T02:51:19;9.30;99.90
8979;DHT22;4524;51.364;5.448;2023-04-07T02:53:47;9.30;99.90
8979;DHT22;4524;51.364;5.448;2023-04-07T02:56:15;9.30;99.90
8979;DHT22;4524;51.364;5.448;2023-04-07T02:58:43;9.20;99.90
8979;DHT22;4524;51.364;5.448;2023-04-07T03:01:12;9.20;99.90
8979;DHT22;4524;51.364;5.448;2023-04-07T03:03:40;9.10;99.90
8979;DHT22;4524;51.364;5.448;2023-04-07T03:06:15;9.10;99.90
8979;DHT22;4524;51.364;5.448;2023-04-07T03:09:04;9.10;1.00
8979;DHT22;4524;51.364;5.448;2023-04-07T03:11:32;9.10;99.90
8979;DHT22;4524;51.364;5.448;2023-04-07T03:14:00;9.10;99.90
8979;DHT22;4524;51.364;5.448;2023-04-07T03:16:30;9.10;99.90
8979;DHT22;4524;51.364;5.448;2023-04-07T03:19:05;9.10;99.90
8979;DHT22;4524;51.364;5.448;2023-04-07T03:21:38;9.10;99.90
8979;DHT22;4524;51.364;5.448;2023-04-07T03:24:08;9.10;99.90
8979;DHT22;4524;51.364;5.448;2023-04-07T03:26:37;9.10;99.90
8979;DHT22;4524;51.364;5.448;2023-04-07T03:29:13;9.10;99.90
8979;DHT22;4524;51.364;5.448;2023-04-07T03:31:42;9.10;99.90
8979;DHT22;4524;51.364;5.448;2023-04-07T03:34:12;9.10;99.90
8979;DHT22;4524;51.364;5.448;2023-04-07T03:36:41;9.10;99.90
8979;DHT22;4524;51.364;5.448;2023-04-07T03:39:10;9.10;99.90
8979;DHT22;4524;51.364;5.448;2023-04-07T03:41:38;9.00;99.90
8979;DHT22;4524;51.364;5.448;2023-04-07T03:44:06;9.00;99.90
8979;DHT22;4524;51.364;5.448;2023-04-07T03:46:36;9.00;99.90
8979;DHT22;4524;51.364;5.448;2023-04-07T03:49:04;8.90;99.90
8979;DHT22;4524;51.364;5.448;2023-04-07T03:51:33;8.90;99.90
8979;DHT22;4524;51.364;5.448;2023-04-07T03:54:05;8.80;99.90
8979;DHT22;4524;51.364;5.448;2023-04-07T03:56:41;8.70;99.90
8979;DHT22;4524;51.364;5.448;2023-04-07T03:59:09;8.70;99.90
8979;DHT22;4524;51.364;5.448;2023-04-07T04:01:46;8.60;99.90
8979;DHT22;4524;51.364;5.448;2023-04-07T04:04:15;8.60;99.90
8979;DHT22;4524;51.364;5.448;2023-04-07T04:06:44;8.70;99.90
8979;DHT22;4524;51.364;5.448;2023-04-07T04:09:24;8.70;99.90
8979;DHT22;4524;51.364;5.448;2023-04-07T04:11:53;8.70;99.90
8979;DHT22;4524;51.364;5.448;2023-04-07T04:14:23;8.70;99.90
8979;DHT22;4524;51.364;5.448;2023-04-07T04:16:56;8.70;99.90
8979;DHT22;4524;51.364;5.448;2023-04-07T04:19:31;8.70;99.90
8979;DHT22;4524;51.364;5.448;2023-04-07T04:22:04;8.70;99.90
8979;DHT22;4524;51.364;5.448;2023-04-07T04:24:38;8.70;99.90
8979;DHT22;4524;51.364;5.448;2023-04-07T04:27:09;8.70;99.90
8979;DHT22;4524;51.364;5.448;2023-04-07T04:29:37;8.70;99.90
8979;DHT22;4524;51.364;5.448;2023-04-07T04:32:08;8.70;99.90
8979;DHT22;4524;51.364;5.448;2023-04-07T04:34:37;8.70;99.90
8979;DHT22;4524;51.364;5.448;2023-04-07T04:37:04;8.70;99.90
8979;DHT22;4524;51.364;5.448;2023-04-07T04:39:32;8.70;99.90
8979;DHT22;4524;51.364;5.448;2023-04-07T04:42:01;8.70;99.90
8979;DHT22;4524;51.364;5.448;2023-04-07T04:44:35;8.80;99.90
8979;DHT22;4524;51.364;5.448;2023-04-07T04:47:04;8.70;99.90
8979;DHT22;4524;51.364;5.448;2023-04-07T04:49:32;8.80;99.90
8979;DHT22;4524;51.364;5.448;2023-04-07T04:52:02;8.60;99.90
8979;DHT22;4524;51.364;5.448;2023-04-07T04:54:37;8.50;99.90
8979;DHT22;4524;51.364;5.448;2023-04-07T04:57:05;8.50;99.90
8979;DHT22;4524;51.364;5.448;2023-04-07T04:59:34;8.50;99.90
8979;DHT22;4524;51.364;5.448;2023-04-07T05:02:03;8.50;99.90
8979;DHT22;4524;51.364;5.448;2023-04-07T05:04:31;8.60;99.90
8979;DHT22;4524;51.364;5.448;2023-04-07T05:07:20;8.70;99.90
8979;DHT22;4524;51.364;5.448;2023-04-07T05:09:48;8.60;99.90
8979;DHT22;4524;51.364;5.448;2023-04-07T05:12:17;8.70;99.90
8979;DHT22;4524;51.364;5.448;2023-04-07T05:14:51;8.70;99.90
8979;DHT22;4524;51.364;5.448;2023-04-07T05:17:18;8.70;99.90
8979;DHT22;4524;51.364;5.448;2023-04-07T05:19:46;8.70;99.90
8979;DHT22;4524;51.364;5.448;2023-04-07T05:22:24;8.70;99.90
8979;DHT22;4524;51.364;5.448;2023-04-07T05:24:52;8.70;99.90
8979;DHT22;4524;51.364;5.448;2023-04-07T05:27:20;8.60;99.90
8979;DHT22;4524;51.364;5.448;2023-04-07T05:29:53;8.60;99.90
8979;DHT22;4524;51.364;5.448;2023-04-07T05:32:29;8.60;99.90
8979;DHT22;4524;51.364;5.448;2023-04-07T05:35:02;8.60;99.90
8979;DHT22;4524;51.364;5.448;2023-04-07T05:37:34;8.60;99.90
8979;DHT22;4524;51.364;5.448;2023-04-07T05:40:04;8.60;99.90
8979;DHT22;4524;51.364;5.448;2023-04-07T05:42:32;8.50;99.90
8979;DHT22;4524;51.364;5.448;2023-04-07T05:45:03;8.60;99.90
8979;DHT22;4524;51.364;5.448;2023-04-07T05:47:32;8.60;99.90
8979;DHT22;4524;51.364;5.448;2023-04-07T05:50:00;8.70;99.90
8979;DHT22;4524;51.364;5.448;2023-04-07T05:52:30;8.70;99.90
8979;DHT22;4524;51.364;5.448;2023-04-07T05:55:08;8.80;99.90
8979;DHT22;4524;51.364;5.448;2023-04-07T05:57:36;8.80;99.90
8979;DHT22;4524;51.364;5.448;2023-04-07T06:00:07;8.90;99.90
8979;DHT22;4524;51.364;5.448;2023-04-07T06:02:39;8.90;99.90
8979;DHT22;4524;51.364;5.448;2023-04-07T06:05:13;8.90;99.90
8979;DHT22;4524;51.364;5.448;2023-04-07T06:07:42;9.00;99.90
8979;DHT22;4524;51.364;5.448;2023-04-07T06:10:10;9.00;99.90
8979;DHT22;4524;51.364;5.448;2023-04-07T06:12:38;9.00;99.90
8979;DHT22;4524;51.364;5.448;2023-04-07T06:15:08;8.90;99.90
8979;DHT22;4524;51.364;5.448;2023-04-07T06:17:37;8.90;99.90
8979;DHT22;4524;51.364;5.448;2023-04-07T06:20:06;8.80;99.90
8979;DHT22;4524;51.364;5.448;2023-04-07T06:22:34;8.80;99.90
8979;DHT22;4524;51.364;5.448;2023-04-07T06:25:02;8.80;99.90
8979;DHT22;4524;51.364;5.448;2023-04-07T06:27:30;8.90;99.90
8979;DHT22;4524;51.364;5.448;2023-04-07T06:29:59;9.00;99.90
8979;DHT22;4524;51.364;5.448;2023-04-07T06:32:29;9.20;99.90
8979;DHT22;4524;51.364;5.448;2023-04-07T06:34:57;9.30;99.90
8979;DHT22;4524;51.364;5.448;2023-04-07T06:37:25;9.30;99.90
8979;DHT22;4524;51.364;5.448;2023-04-07T06:39:53;9.40;99.90
8979;DHT22;4524;51.364;5.448;2023-04-07T06:42:21;9.60;99.90
8979;DHT22;4524;51.364;5.448;2023-04-07T06:44:58;9.50;99.90
8979;DHT22;4524;51.364;5.448;2023-04-07T06:47:26;9.50;99.90
8979;DHT22;4524;51.364;5.448;2023-04-07T06:49:56;9.50;99.90
8979;DHT22;4524;51.364;5.448;2023-04-07T06:52:24;9.50;99.90
8979;DHT22;4524;51.364;5.448;2023-04-07T06:54:52;9.60;99.90
8979;DHT22;4524;51.364;5.448;2023-04-07T06:57:20;9.70;99.90
8979;DHT22;4524;51.364;5.448;2023-04-07T06:59:47;9.70;99.90
8979;DHT22;4524;51.364;5.448;2023-04-07T07:02:15;9.80;99.90
8979;DHT22;4524;51.364;5.448;2023-04-07T07:04:44;9.80;99.90
8979;DHT22;4524;51.364;5.448;2023-04-07T07:07:13;9.80;99.90
8979;DHT22;4524;51.364;5.448;2023-04-07T07:09:41;9.80;99.90
8979;DHT22;4524;51.364;5.448;2023-04-07T07:12:09;9.80;99.90
8979;DHT22;4524;51.364;5.448;2023-04-07T07:14:37;9.70;99.90
8979;DHT22;4524;51.364;5.448;2023-04-07T07:17:05;9.80;99.90
8979;DHT22;4524;51.364;5.448;2023-04-07T07:19:33;9.80;99.90
8979;DHT22;4524;51.364;5.448;2023-04-07T07:22:01;10.00;99.90
8979;DHT22;4524;51.364;5.448;2023-04-07T07:24:31;10.10;99.90
8979;DHT22;4524;51.364;5.448;2023-04-07T07:26:59;10.30;99.90
8979;DHT22;4524;51.364;5.448;2023-04-07T07:29:29;10.40;99.90
8979;DHT22;4524;51.364;5.448;2023-04-07T07:31:56;10.50;99.90
8979;DHT22;4524;51.364;5.448;2023-04-07T07:34:24;10.40;99.90
8979;DHT22;4524;51.364;5.448;2023-04-07T07:36:52;10.40;99.90
8979;DHT22;4524;51.364;5.448;2023-04-07T07:39:20;10.40;99.90
8979;DHT22;4524;51.364;5.448;2023-04-07T07:41:49;10.50;99.90
8979;DHT22;4524;51.364;5.448;2023-04-07T07:44:17;10.50;99.90
8979;DHT22;4524;51.364;5.448;2023-04-07T07:46:46;10.50;22.80
8979;DHT22;4524;51.364;5.448;2023-04-07T07:49:14;10.60;23.70
8979;DHT22;4524;51.364;5.448;2023-04-07T07:51:43;10.70;20.10
8979;DHT22;4524;51.364;5.448;2023-04-07T07:54:11;10.80;10.30
8979;DHT22;4524;51.364;5.448;2023-04-07T07:56:39;11.00;1.00
8979;DHT22;4524;51.364;5.448;2023-04-07T07:59:08;11.00;1.00
8979;DHT22;4524;51.364;5.448;2023-04-07T08:01:37;11.10;29.40
8979;DHT22;4524;51.364;5.448;2023-04-07T08:04:04;11.10;1.00
8979;DHT22;4524;51.364;5.448;2023-04-07T08:06:33;10.90;1.00
8979;DHT22;4524;51.364;5.448;2023-04-07T08:09:01;10.90;1.00
8979;DHT22;4524;51.364;5.448;2023-04-07T08:11:28;11.00;47.70
8979;DHT22;4524;51.364;5.448;2023-04-07T08:13:56;10.80;1.00
8979;DHT22;4524;51.364;5.448;2023-04-07T08:16:26;11.00;1.00
8979;DHT22;4524;51.364;5.448;2023-04-07T08:18:54;10.90;1.00
8979;DHT22;4524;51.364;5.448;2023-04-07T08:21:22;10.90;1.00
8979;DHT22;4524;51.364;5.448;2023-04-07T08:23:50;10.90;1.00
8979;DHT22;4524;51.364;5.448;2023-04-07T08:26:17;11.00;1.00
8979;DHT22;4524;51.364;5.448;2023-04-07T08:28:47;10.80;1.00
8979;DHT22;4524;51.364;5.448;2023-04-07T08:31:15;10.90;1.00
8979;DHT22;4524;51.364;5.448;2023-04-07T08:33:45;10.80;1.00
8979;DHT22;4524;51.364;5.448;2023-04-07T08:36:14;10.80;1.00
8979;DHT22;4524;51.364;5.448;2023-04-07T08:38:42;10.90;19.30
8979;DHT22;4524;51.364;5.448;2023-04-07T08:41:11;10.90;1.00
8979;DHT22;4524;51.364;5.448;2023-04-07T08:43:39;10.90;1.00
8979;DHT22;4524;51.364;5.448;2023-04-07T08:46:09;10.90;1.00
8979;DHT22;4524;51.364;5.448;2023-04-07T08:48:38;10.80;1.00
8979;DHT22;4524;51.364;5.448;2023-04-07T08:51:08;10.80;1.00
8979;DHT22;4524;51.364;5.448;2023-04-07T08:53:42;10.90;1.00
8979;DHT22;4524;51.364;5.448;2023-04-07T08:56:15;11.20;1.00
8979;DHT22;4524;51.364;5.448;2023-04-07T08:58:45;11.50;1.00
8979;DHT22;4524;51.364;5.448;2023-04-07T09:01:13;11.70;1.00
8979;DHT22;4524;51.364;5.448;2023-04-07T09:03:43;12.00;1.00
8979;DHT22;4524;51.364;5.448;2023-04-07T09:06:16;11.80;1.00
8979;DHT22;4524;51.364;5.448;2023-04-07T09:08:44;11.70;1.00
8979;DHT22;4524;51.364;5.448;2023-04-07T09:11:12;11.50;1.00
8979;DHT22;4524;51.364;5.448;2023-04-07T09:13:40;11.40;1.00
8979;DHT22;4524;51.364;5.448;2023-04-07T09:16:08;11.40;1.00
8979;DHT22;4524;51.364;5.448;2023-04-07T09:18:36;11.30;1.00
8979;DHT22;4524;51.364;5.448;2023-04-07T09:21:04;11.30;1.00
8979;DHT22;4524;51.364;5.448;2023-04-07T09:23:36;11.20;1.00
8979;DHT22;4524;51.364;5.448;2023-04-07T09:26:18;11.10;1.00
8979;DHT22;4524;51.364;5.448;2023-04-07T09:28:49;11.20;1.00
8979;DHT22;4524;51.364;5.448;2023-04-07T09:31:17;10.90;1.00
8979;DHT22;4524;51.364;5.448;2023-04-07T09:33:47;10.80;1.00
8979;DHT22;4524;51.364;5.448;2023-04-07T09:36:15;10.80;1.00
8979;DHT22;4524;51.364;5.448;2023-04-07T09:38:45;10.80;1.00
8979;DHT22;4524;51.364;5.448;2023-04-07T09:41:14;10.60;1.00
8979;DHT22;4524;51.364;5.448;2023-04-07T09:43:43;10.70;1.00
8979;DHT22;4524;51.364;5.448;2023-04-07T09:46:14;10.90;1.00
8979;DHT22;4524;51.364;5.448;2023-04-07T09:48:43;11.00;99.90
8979;DHT22;4524;51.364;5.448;2023-04-07T09:51:12;11.20;99.90
8979;DHT22;4524;51.364;5.448;2023-04-07T09:53:43;11.60;1.00
8979;DHT22;4524;51.364;5.448;2023-04-07T09:56:15;11.80;99.90
8979;DHT22;4524;51.364;5.448;2023-04-07T09:58:45;12.10;99.90
8979;DHT22;4524;51.364;5.448;2023-04-07T10:01:14;12.20;99.90
8979;DHT22;4524;51.364;5.448;2023-04-07T10:03:44;12.40;99.90
8979;DHT22;4524;51.364;5.448;2023-04-07T10:06:13;12.20;99.90
8979;DHT22;4524;51.364;5.448;2023-04-07T10:08:42;11.90;99.90
8979;DHT22;4524;51.364;5.448;2023-04-07T10:11:10;11.90;99.90
8979;DHT22;4524;51.364;5.448;2023-04-07T10:13:39;12.00;99.90
8979;DHT22;4524;51.364;5.448;2023-04-07T10:16:08;11.90;99.90
8979;DHT22;4524;51.364;5.448;2023-04-07T10:18:37;12.10;99.90
8979;DHT22;4524;51.364;5.448;2023-04-07T10:21:06;12.20;99.90
8979;DHT22;4524;51.364;5.448;2023-04-07T10:23:46;12.00;99.90
8979;DHT22;4524;51.364;5.448;2023-04-07T10:26:18;11.90;99.90
8979;DHT22;4524;51.364;5.448;2023-04-07T10:28:54;11.70;99.90
8979;DHT22;4524;51.364;5.448;2023-04-07T10:31:24;11.80;99.90
8979;DHT22;4524;51.364;5.448;2023-04-07T10:33:53;11.80;99.90
8979;DHT22;4524;51.364;5.448;2023-04-07T10:36:22;11.70;99.90
8979;DHT22;4524;51.364;5.448;2023-04-07T10:41:54;11.80;99.90
8979;DHT22;4524;51.364;5.448;2023-04-07T10:44:46;11.70;99.90
8979;DHT22;4524;51.364;5.448;2023-04-07T10:47:18;11.60;99.90
8979;DHT22;4524;51.364;5.448;2023-04-07T10:50:15;11.60;99.90
8979;DHT22;4524;51.364;5.448;2023-04-07T10:52:44;11.60;99.90
8979;DHT22;4524;51.364;5.448;2023-04-07T10:55:32;11.60;99.90
8979;DHT22;4524;51.364;5.448;2023-04-07T10:58:15;11.40;99.90
8979;DHT22;4524;51.364;5.448;2023-04-07T11:03:57;11.40;99.90
8979;DHT22;4524;51.364;5.448;2023-04-07T11:06:26;11.60;99.90
8979;DHT22;4524;51.364;5.448;2023-04-07T11:08:54;11.70;99.90
8979;DHT22;4524;51.364;5.448;2023-04-07T11:11:36;11.80;99.90
8979;DHT22;4524;51.364;5.448;2023-04-07T11:14:05;12.10;99.90
8979;DHT22;4524;51.364;5.448;2023-04-07T11:16:36;12.40;99.90
8979;DHT22;4524;51.364;5.448;2023-04-07T11:19:06;12.80;99.90
8979;DHT22;4524;51.364;5.448;2023-04-07T11:21:34;12.80;99.90
8979;DHT22;4524;51.364;5.448;2023-04-07T11:24:02;12.90;99.90
8979;DHT22;4524;51.364;5.448;2023-04-07T11:26:37;13.00;99.90
8979;DHT22;4524;51.364;5.448;2023-04-07T11:29:05;13.00;99.90
8979;DHT22;4524;51.364;5.448;2023-04-07T11:31:33;12.60;99.90
8979;DHT22;4524;51.364;5.448;2023-04-07T11:34:03;12.50;99.90
8979;DHT22;4524;51.364;5.448;2023-04-07T11:36:34;12.50;99.90
8979;DHT22;4524;51.364;5.448;2023-04-07T11:39:02;12.50;99.90
8979;DHT22;4524;51.364;5.448;2023-04-07T11:41:31;12.50;99.90
8979;DHT22;4524;51.364;5.448;2023-04-07T11:44:04;12.40;99.90
8979;DHT22;4524;51.364;5.448;2023-04-07T11:46:32;12.70;99.90
8979;DHT22;4524;51.364;5.448;2023-04-07T11:49:11;12.90;99.90
8979;DHT22;4524;51.364;5.448;2023-04-07T11:51:42;12.90;99.90
8979;DHT22;4524;51.364;5.448;2023-04-07T11:54:10;13.30;99.90
8979;DHT22;4524;51.364;5.448;2023-04-07T11:56:43;13.40;99.90
8979;DHT22;4524;51.364;5.448;2023-04-07T11:59:19;13.30;99.90
8979;DHT22;4524;51.364;5.448;2023-04-07T12:01:48;13.00;99.90
8979;DHT22;4524;51.364;5.448;2023-04-07T12:04:18;12.80;99.90
8979;DHT22;4524;51.364;5.448;2023-04-07T12:06:48;12.70;99.90
8979;DHT22;4524;51.364;5.448;2023-04-07T12:09:27;12.70;99.90
8979;DHT22;4524;51.364;5.448;2023-04-07T12:11:56;12.80;99.90
8979;DHT22;4524;51.364;5.448;2023-04-07T12:14:24;12.60;99.90
8979;DHT22;4524;51.364;5.448;2023-04-07T12:16:53;12.40;99.90
8979;DHT22;4524;51.364;5.448;2023-04-07T12:19:25;12.30;99.90
8979;DHT22;4524;51.364;5.448;2023-04-07T12:21:55;12.30;99.90
8979;DHT22;4524;51.364;5.448;2023-04-07T12:24:23;12.40;99.90
8979;DHT22;4524;51.364;5.448;2023-04-07T12:26:51;12.40;99.90
8979;DHT22;4524;51.364;5.448;2023-04-07T12:29:19;12.40;99.90
8979;DHT22;4524;51.364;5.448;2023-04-07T12:31:47;12.40;99.90
8979;DHT22;4524;51.364;5.448;2023-04-07T12:34:17;12.30;99.90
8979;DHT22;4524;51.364;5.448;2023-04-07T12:36:45;12.40;99.90
8979;DHT22;4524;51.364;5.448;2023-04-07T12:39:16;12.50;99.90
8979;DHT22;4524;51.364;5.448;2023-04-07T12:41:44;12.60;99.90
8979;DHT22;4524;51.364;5.448;2023-04-07T12:44:14;12.50;99.90
8979;DHT22;4524;51.364;5.448;2023-04-07T12:46:42;12.50;99.90
8979;DHT22;4524;51.364;5.448;2023-04-07T12:49:10;12.50;99.90
8979;DHT22;4524;51.364;5.448;2023-04-07T12:51:38;12.50;99.90
8979;DHT22;4524;51.364;5.448;2023-04-07T12:54:06;12.40;99.90
8979;DHT22;4524;51.364;5.448;2023-04-07T12:56:35;12.30;99.90
8979;DHT22;4524;51.364;5.448;2023-04-07T12:59:03;12.30;99.90
8979;DHT22;4524;51.364;5.448;2023-04-07T13:01:32;12.10;99.90
8979;DHT22;4524;51.364;5.448;2023-04-07T13:04:01;12.30;99.90
8979;DHT22;4524;51.364;5.448;2023-04-07T13:06:29;12.40;99.90
8979;DHT22;4524;51.364;5.448;2023-04-07T13:08:57;12.60;99.90
8979;DHT22;4524;51.364;5.448;2023-04-07T13:11:25;12.70;99.90
8979;DHT22;4524;51.364;5.448;2023-04-07T13:13:55;12.80;99.90
8979;DHT22;4524;51.364;5.448;2023-04-07T13:16:26;12.50;99.90
8979;DHT22;4524;51.364;5.448;2023-04-07T13:18:54;12.40;99.90
8979;DHT22;4524;51.364;5.448;2023-04-07T13:21:22;12.50;99.90
8979;DHT22;4524;51.364;5.448;2023-04-07T13:23:53;12.20;99.90
8979;DHT22;4524;51.364;5.448;2023-04-07T13:26:22;12.20;99.90
8979;DHT22;4524;51.364;5.448;2023-04-07T13:28:49;12.10;99.90
8979;DHT22;4524;51.364;5.448;2023-04-07T13:31:19;12.10;99.90
8979;DHT22;4524;51.364;5.448;2023-04-07T13:33:47;11.90;99.90
8979;DHT22;4524;51.364;5.448;2023-04-07T13:36:16;12.10;99.90
8979;DHT22;4524;51.364;5.448;2023-04-07T13:38:47;12.10;99.90
8979;DHT22;4524;51.364;5.448;2023-04-07T13:41:15;12.30;99.90
8979;DHT22;4524;51.364;5.448;2023-04-07T13:43:43;12.30;99.90
8979;DHT22;4524;51.364;5.448;2023-04-07T13:46:12;12.20;99.90
8979;DHT22;4524;51.364;5.448;2023-04-07T13:48:55;12.50;99.90
8979;DHT22;4524;51.364;5.448;2023-04-07T13:51:23;12.60;99.90
8979;DHT22;4524;51.364;5.448;2023-04-07T13:53:51;12.40;99.90
8979;DHT22;4524;51.364;5.448;2023-04-07T13:56:19;12.30;99.90
8979;DHT22;4524;51.364;5.448;2023-04-07T13:58:47;12.00;99.90
8979;DHT22;4524;51.364;5.448;2023-04-07T14:01:16;12.00;99.90
8979;DHT22;4524;51.364;5.448;2023-04-07T14:03:44;11.80;99.90
8979;DHT22;4524;51.364;5.448;2023-04-07T14:06:14;11.70;99.90
8979;DHT22;4524;51.364;5.448;2023-04-07T14:08:42;11.70;99.90
8979;DHT22;4524;51.364;5.448;2023-04-07T14:11:10;11.60;99.90
8979;DHT22;4524;51.364;5.448;2023-04-07T14:13:38;11.70;99.90
8979;DHT22;4524;51.364;5.448;2023-04-07T14:16:06;11.70;99.90
8979;DHT22;4524;51.364;5.448;2023-04-07T14:18:34;11.70;99.90
8979;DHT22;4524;51.364;5.448;2023-04-07T14:21:03;11.70;99.90
8979;DHT22;4524;51.364;5.448;2023-04-07T14:23:34;11.70;99.90
8979;DHT22;4524;51.364;5.448;2023-04-07T14:26:03;11.80;99.90
8979;DHT22;4524;51.364;5.448;2023-04-07T14:28:31;11.90;99.90
8979;DHT22;4524;51.364;5.448;2023-04-07T14:30:59;12.00;99.90
8979;DHT22;4524;51.364;5.448;2023-04-07T14:33:27;12.10;99.90
8979;DHT22;4524;51.364;5.448;2023-04-07T14:35:55;12.20;99.90
8979;DHT22;4524;51.364;5.448;2023-04-07T14:38:23;12.20;99.90
8979;DHT22;4524;51.364;5.448;2023-04-07T14:40:53;12.20;99.90
8979;DHT22;4524;51.364;5.448;2023-04-07T14:43:21;12.00;99.90
8979;DHT22;4524;51.364;5.448;2023-04-07T14:45:49;12.10;99.90
8979;DHT22;4524;51.364;5.448;2023-04-07T14:48:17;12.00;99.90
8979;DHT22;4524;51.364;5.448;2023-04-07T14:50:45;11.90;99.90
8979;DHT22;4524;51.364;5.448;2023-04-07T14:53:22;11.90;99.90
8979;DHT22;4524;51.364;5.448;2023-04-07T14:55:50;11.80;99.90
8979;DHT22;4524;51.364;5.448;2023-04-07T14:58:19;11.80;99.90
8979;DHT22;4524;51.364;5.448;2023-04-07T15:00:47;11.80;99.90
8979;DHT22;4524;51.364;5.448;2023-04-07T15:03:15;11.80;99.90
8979;DHT22;4524;51.364;5.448;2023-04-07T15:05:43;12.00;99.90
8979;DHT22;4524;51.364;5.448;2023-04-07T15:08:11;12.00;99.90
8979;DHT22;4524;51.364;5.448;2023-04-07T15:10:39;11.90;99.90
8979;DHT22;4524;51.364;5.448;2023-04-07T15:13:07;11.80;99.90
8979;DHT22;4524;51.364;5.448;2023-04-07T15:15:36;11.70;99.90
8979;DHT22;4524;51.364;5.448;2023-04-07T15:18:04;11.80;99.90
8979;DHT22;4524;51.364;5.448;2023-04-07T15:20:32;11.80;99.90
8979;DHT22;4524;51.364;5.448;2023-04-07T15:23:00;11.80;99.90
8979;DHT22;4524;51.364;5.448;2023-04-07T15:25:28;11.80;99.90
8979;DHT22;4524;51.364;5.448;2023-04-07T15:27:56;11.70;99.90
8979;DHT22;4524;51.364;5.448;2023-04-07T15:30:24;11.70;99.90
8979;DHT22;4524;51.364;5.448;2023-04-07T15:32:57;11.70;99.90
8979;DHT22;4524;51.364;5.448;2023-04-07T15:35:26;11.80;99.90
8979;DHT22;4524;51.364;5.448;2023-04-07T15:37:54;11.60;99.90
8979;DHT22;4524;51.364;5.448;2023-04-07T15:40:22;11.70;99.90
8979;DHT22;4524;51.364;5.448;2023-04-07T15:42:50;11.60;99.90
8979;DHT22;4524;51.364;5.448;2023-04-07T15:45:18;11.60;99.90
8979;DHT22;4524;51.364;5.448;2023-04-07T15:47:46;11.60;99.90
8979;DHT22;4524;51.364;5.448;2023-04-07T15:50:15;11.50;99.90
8979;DHT22;4524;51.364;5.448;2023-04-07T15:52:43;11.50;99.90
8979;DHT22;4524;51.364;5.448;2023-04-07T15:55:11;11.50;99.90
8979;DHT22;4524;51.364;5.448;2023-04-07T15:57:39;11.40;99.90
8979;DHT22;4524;51.364;5.448;2023-04-07T16:00:08;11.40;99.90
8979;DHT22;4524;51.364;5.448;2023-04-07T16:02:36;11.40;99.90
8979;DHT22;4524;51.364;5.448;2023-04-07T16:05:05;11.40;99.90
8979;DHT22;4524;51.364;5.448;2023-04-07T16:07:35;11.30;99.90
8979;DHT22;4524;51.364;5.448;2023-04-07T16:10:03;11.30;99.90
8979;DHT22;4524;51.364;5.448;2023-04-07T16:12:33;11.30;99.90
8979;DHT22;4524;51.364;5.448;2023-04-07T16:15:03;11.30;99.90
8979;DHT22;4524;51.364;5.448;2023-04-07T16:17:31;11.40;99.90
8979;DHT22;4524;51.364;5.448;2023-04-07T16:19:59;11.40;99.90
8979;DHT22;4524;51.364;5.448;2023-04-07T16:22:27;11.30;99.90
8979;DHT22;4524;51.364;5.448;2023-04-07T16:24:56;11.40;99.90
8979;DHT22;4524;51.364;5.448;2023-04-07T16:27:24;11.30;99.90
8979;DHT22;4524;51.364;5.448;2023-04-07T16:29:52;11.30;99.90
8979;DHT22;4524;51.364;5.448;2023-04-07T16:32:20;11.40;99.90
8979;DHT22;4524;51.364;5.448;2023-04-07T16:34:48;11.40;99.90